createdAt,value
2023-01-03T00:00:37.094Z,8.97
2023-01-03T00:01:36.981Z,9.02
2023-01-03T00:02:37.024Z,9.02
2023-01-03T00:03:36.916Z,9.05
2023-01-03T00:04:36.937Z,8.91
2023-01-03T00:05:36.881Z,8.90
2023-01-03T00:06:36.936Z,8.86
2023-01-03T00:07:36.826Z,8.79
2023-01-03T00:08:36.791Z,8.86
2023-01-03T00:09:36.759Z,8.90
2023-01-03T00:10:36.735Z,8.78
2023-01-03T00:11:36.732Z,8.71
2023-01-03T00:12:36.691Z,8.60
2023-01-03T00:13:36.674Z,8.63
2023-01-03T00:14:36.749Z,8.62
2023-01-03T00:15:36.636Z,8.60
2023-01-03T00:16:36.654Z,8.54
2023-01-03T00:17:36.564Z,8.60
2023-01-03T00:18:36.531Z,8.54
2023-01-03T00:19:36.509Z,8.58
2023-01-03T00:20:36.501Z,8.45
2023-01-03T00:21:36.461Z,8.42
2023-01-03T00:22:36.453Z,8.48
2023-01-03T00:23:36.448Z,8.45
2023-01-03T00:24:36.387Z,8.57
2023-01-03T00:25:36.385Z,8.57
2023-01-03T00:26:36.337Z,8.57
2023-01-03T00:27:36.320Z,8.42
2023-01-03T00:28:36.283Z,8.48
2023-01-03T00:29:36.267Z,8.37
2023-01-03T00:30:36.500Z,8.44
2023-01-03T00:31:36.214Z,8.36
2023-01-03T00:32:36.189Z,8.28
2023-01-03T00:33:36.213Z,8.26
2023-01-03T00:34:36.138Z,8.45
2023-01-03T00:35:36.156Z,8.45
2023-01-03T00:36:36.102Z,8.39
2023-01-03T00:37:36.072Z,8.36
2023-01-03T00:38:36.045Z,8.39
2023-01-03T00:39:36.022Z,8.26
2023-01-03T00:40:35.991Z,8.28
2023-01-03T00:41:35.967Z,8.28
2023-01-03T00:42:35.944Z,8.22
2023-01-03T00:43:35.961Z,8.21
2023-01-03T00:44:35.889Z,8.14
2023-01-03T00:45:35.969Z,8.03
2023-01-03T00:46:35.900Z,7.89
2023-01-03T00:47:35.819Z,7.84
2023-01-03T00:48:35.808Z,7.81
2023-01-03T00:49:35.782Z,7.69
2023-01-03T00:50:35.745Z,7.67
2023-01-03T00:51:35.734Z,7.55
2023-01-03T00:52:35.797Z,7.50
2023-01-03T00:53:35.678Z,7.44
2023-01-03T00:54:35.652Z,7.37
2023-01-03T00:55:35.641Z,7.32
2023-01-03T00:56:35.622Z,7.26
2023-01-03T00:57:35.583Z,7.37
2023-01-03T00:58:35.585Z,7.20
2023-01-03T00:59:35.555Z,7.31
2023-01-03T01:00:35.504Z,7.31
2023-01-03T01:01:44.054Z,7.37
2023-01-03T01:02:35.623Z,7.31
2023-01-03T01:03:35.526Z,7.38
2023-01-03T01:04:35.421Z,7.23
2023-01-03T01:05:35.383Z,7.26
2023-01-03T01:06:35.351Z,7.23
2023-01-03T01:07:35.368Z,7.22
2023-01-03T01:08:35.306Z,7.16
2023-01-03T01:09:35.347Z,7.15
2023-01-03T01:10:35.281Z,7.09
2023-01-03T01:11:35.300Z,7.07
2023-01-03T01:12:35.223Z,7.08
2023-01-03T01:13:35.199Z,6.89
2023-01-03T01:14:35.160Z,6.81
2023-01-03T01:15:35.194Z,6.80
2023-01-03T01:16:35.101Z,6.72
2023-01-03T01:17:35.076Z,6.77
2023-01-03T01:18:35.061Z,6.79
2023-01-03T01:19:35.030Z,6.84
2023-01-03T01:20:34.987Z,6.83
2023-01-03T01:21:34.987Z,6.79
2023-01-03T01:22:34.955Z,6.83
2023-01-03T01:23:34.937Z,6.68
2023-01-03T01:24:34.937Z,6.62
2023-01-03T01:25:34.866Z,6.61
2023-01-03T01:26:34.841Z,6.65
2023-01-03T01:27:34.820Z,6.63
2023-01-03T01:28:34.789Z,6.63
2023-01-03T01:29:34.811Z,6.56
2023-01-03T01:30:34.740Z,6.59
2023-01-03T01:31:34.779Z,6.47
2023-01-03T01:32:34.692Z,6.50
2023-01-03T01:33:34.694Z,6.35
2023-01-03T01:34:34.735Z,6.59
2023-01-03T01:35:34.620Z,6.43
2023-01-03T01:36:34.587Z,6.50
2023-01-03T01:37:34.569Z,6.38
2023-01-03T01:38:34.536Z,6.32
2023-01-03T01:39:34.513Z,6.29
2023-01-03T01:40:34.487Z,6.38
2023-01-03T01:41:34.463Z,6.38
2023-01-03T01:42:34.438Z,6.29
2023-01-03T01:43:34.417Z,6.38
2023-01-03T01:44:34.413Z,6.29
2023-01-03T01:45:34.379Z,6.26
2023-01-03T01:46:34.387Z,6.33
2023-01-03T01:47:34.327Z,6.35
2023-01-03T01:48:34.282Z,6.29
2023-01-03T01:49:34.268Z,6.21
2023-01-03T01:50:34.254Z,6.10
2023-01-03T01:51:34.212Z,6.16
2023-01-03T01:52:34.184Z,6.32
2023-01-03T01:53:34.168Z,6.22
2023-01-03T01:54:34.135Z,6.28
2023-01-03T01:55:34.113Z,6.11
2023-01-03T01:56:34.080Z,6.13
2023-01-03T01:57:34.071Z,6.09
2023-01-03T01:58:34.037Z,5.95
2023-01-03T01:59:34.006Z,5.88
2023-01-03T02:00:33.999Z,5.81
2023-01-03T02:01:34.043Z,5.73
2023-01-03T02:02:34.187Z,5.64
2023-01-03T02:03:33.997Z,5.60
2023-01-03T02:04:33.881Z,5.60
2023-01-03T02:05:33.856Z,5.53
2023-01-03T02:06:33.830Z,5.56
2023-01-03T02:07:33.814Z,5.56
2023-01-03T02:08:33.768Z,5.60
2023-01-03T02:09:33.769Z,5.57
2023-01-03T02:10:33.719Z,5.77
2023-01-03T02:11:33.731Z,5.78
2023-01-03T02:12:33.685Z,5.81
2023-01-03T02:13:33.656Z,5.89
2023-01-03T02:14:33.629Z,6.00
2023-01-03T02:15:33.673Z,5.93
2023-01-03T02:16:33.602Z,6.06
2023-01-03T02:17:33.557Z,6.10
2023-01-03T02:18:33.522Z,6.11
2023-01-03T02:19:33.497Z,6.21
2023-01-03T02:20:33.475Z,6.26
2023-01-03T02:21:33.455Z,6.36
2023-01-03T02:22:33.429Z,6.30
2023-01-03T02:23:33.397Z,6.32
2023-01-03T02:24:33.374Z,6.16
2023-01-03T02:25:33.351Z,6.16
2023-01-03T02:26:33.313Z,6.14
2023-01-03T02:27:33.299Z,6.10
2023-01-03T02:28:33.285Z,6.00
2023-01-03T02:29:33.250Z,5.95
2023-01-03T02:30:33.217Z,5.81
2023-01-03T02:31:33.258Z,5.75
2023-01-03T02:32:33.165Z,5.73
2023-01-03T02:33:33.160Z,5.71
2023-01-03T02:34:33.114Z,5.66
2023-01-03T02:35:33.100Z,5.53
2023-01-03T02:36:33.059Z,5.56
2023-01-03T02:37:33.036Z,5.49
2023-01-03T02:38:33.023Z,5.53
2023-01-03T02:39:32.997Z,5.55
2023-01-03T02:40:32.959Z,5.43
2023-01-03T02:41:32.944Z,5.53
2023-01-03T02:42:32.908Z,5.45
2023-01-03T02:43:32.896Z,5.52
2023-01-03T02:44:32.908Z,5.56
2023-01-03T02:45:32.873Z,5.46
2023-01-03T02:46:32.926Z,5.52
2023-01-03T02:47:32.811Z,5.49
2023-01-03T02:48:32.783Z,5.52
2023-01-03T02:49:32.769Z,5.56
2023-01-03T02:50:32.716Z,5.53
2023-01-03T02:51:32.705Z,5.48
2023-01-03T02:52:32.667Z,5.52
2023-01-03T02:53:32.636Z,5.52
2023-01-03T02:54:32.612Z,5.57
2023-01-03T02:55:32.607Z,5.53
2023-01-03T02:56:32.556Z,5.56
2023-01-03T02:57:32.539Z,5.45
2023-01-03T02:58:32.499Z,5.46
2023-01-03T02:59:32.480Z,5.52
2023-01-03T03:00:32.459Z,5.46
2023-01-03T03:01:32.535Z,5.45
2023-01-03T03:02:32.665Z,5.38
2023-01-03T03:03:32.493Z,5.40
2023-01-03T03:04:32.367Z,5.34
2023-01-03T03:05:32.324Z,5.46
2023-01-03T03:06:32.297Z,5.41
2023-01-03T03:07:32.275Z,5.37
2023-01-03T03:08:32.283Z,5.52
2023-01-03T03:09:32.219Z,5.50
2023-01-03T03:10:32.230Z,5.46
2023-01-03T03:11:32.190Z,5.27
2023-01-03T03:12:32.141Z,5.25
2023-01-03T03:13:32.133Z,5.35
2023-01-03T03:14:32.088Z,5.28
2023-01-03T03:15:32.077Z,5.37
2023-01-03T03:16:32.113Z,5.43
2023-01-03T03:17:32.032Z,5.48
2023-01-03T03:18:32.085Z,5.34
2023-01-03T03:19:32.032Z,5.40
2023-01-03T03:20:31.959Z,5.40
2023-01-03T03:21:31.913Z,5.37
2023-01-03T03:22:31.969Z,5.32
2023-01-03T03:23:31.888Z,5.27
2023-01-03T03:24:31.836Z,5.17
2023-01-03T03:25:31.817Z,5.09
2023-01-03T03:26:31.801Z,5.07
2023-01-03T03:27:31.771Z,5.12
2023-01-03T03:28:31.735Z,5.22
2023-01-03T03:29:31.722Z,5.31
2023-01-03T03:30:31.709Z,5.37
2023-01-03T03:31:31.732Z,5.40
2023-01-03T03:32:31.644Z,5.45
2023-01-03T03:33:31.687Z,5.53
2023-01-03T03:34:31.619Z,5.41
2023-01-03T03:35:31.577Z,5.56
2023-01-03T03:36:31.613Z,5.46
2023-01-03T03:37:31.544Z,5.41
2023-01-03T03:38:31.492Z,5.32
2023-01-03T03:39:31.469Z,5.30
2023-01-03T03:40:31.469Z,5.23
2023-01-03T03:41:31.414Z,5.13
2023-01-03T03:42:31.558Z,5.07
2023-01-03T03:43:31.360Z,4.99
2023-01-03T03:44:31.540Z,5.13
2023-01-03T03:45:31.423Z,5.01
2023-01-03T03:46:31.351Z,5.01
2023-01-03T03:47:31.306Z,4.91
2023-01-03T03:48:31.253Z,4.91
2023-01-03T03:49:31.233Z,4.94
2023-01-03T03:50:31.197Z,4.92
2023-01-03T03:51:31.149Z,4.92
2023-01-03T03:52:31.147Z,4.86
2023-01-03T03:53:31.159Z,4.89
2023-01-03T03:54:31.079Z,4.76
2023-01-03T03:55:31.043Z,4.94
2023-01-03T03:56:31.022Z,4.96
2023-01-03T03:57:31.274Z,4.95
2023-01-03T03:58:30.970Z,4.94
2023-01-03T03:59:30.971Z,4.99
2023-01-03T04:00:30.915Z,4.96
2023-01-03T04:01:30.999Z,4.92
2023-01-03T04:02:30.970Z,4.94
2023-01-03T04:03:30.927Z,4.88
2023-01-03T04:04:30.821Z,4.89
2023-01-03T04:05:30.796Z,4.91
2023-01-03T04:06:30.763Z,4.95
2023-01-03T04:07:30.761Z,4.95
2023-01-03T04:08:30.722Z,4.92
2023-01-03T04:09:30.673Z,4.98
2023-01-03T04:10:37.255Z,4.96
2023-01-03T04:11:30.643Z,5.05
2023-01-03T04:12:30.611Z,5.01
2023-01-03T04:13:30.572Z,5.01
2023-01-03T04:14:30.589Z,5.16
2023-01-03T04:15:30.531Z,5.17
2023-01-03T04:16:30.571Z,5.19
2023-01-03T04:17:30.497Z,5.30
2023-01-03T04:18:30.458Z,5.30
2023-01-03T04:19:30.432Z,5.25
2023-01-03T04:20:30.419Z,5.22
2023-01-03T04:21:30.370Z,5.13
2023-01-03T04:22:30.347Z,5.27
2023-01-03T04:23:30.317Z,5.34
2023-01-03T04:24:30.307Z,5.40
2023-01-03T04:25:30.269Z,5.56
2023-01-03T04:26:30.253Z,5.53
2023-01-03T04:27:30.229Z,5.37
2023-01-03T04:28:30.194Z,5.32
2023-01-03T04:29:34.130Z,5.31
2023-01-03T04:30:30.158Z,5.20
2023-01-03T04:31:30.200Z,5.27
2023-01-03T04:32:30.111Z,5.27
2023-01-03T04:33:30.121Z,5.46
2023-01-03T04:34:30.053Z,5.49
2023-01-03T04:35:30.029Z,5.48
2023-01-03T04:36:29.998Z,5.56
2023-01-03T04:37:29.978Z,5.56
2023-01-03T04:38:29.942Z,5.74
2023-01-03T04:39:29.929Z,5.70
2023-01-03T04:40:29.893Z,5.71
2023-01-03T04:41:29.855Z,5.74
2023-01-03T04:42:29.841Z,5.64
2023-01-03T04:43:29.808Z,5.60
2023-01-03T04:44:29.784Z,5.56
2023-01-03T04:45:29.813Z,5.48
2023-01-03T04:46:29.840Z,5.34
2023-01-03T04:47:29.701Z,5.40
2023-01-03T04:48:29.684Z,5.32
2023-01-03T04:49:29.793Z,5.14
2023-01-03T04:50:29.631Z,5.12
2023-01-03T04:51:29.617Z,5.09
2023-01-03T04:52:29.587Z,5.10
2023-01-03T04:53:29.561Z,5.07
2023-01-03T04:54:29.543Z,5.05
2023-01-03T04:55:29.554Z,5.01
2023-01-03T04:56:29.489Z,5.01
2023-01-03T04:57:29.472Z,4.92
2023-01-03T04:58:29.436Z,4.94
2023-01-03T04:59:29.424Z,4.96
2023-01-03T05:00:29.376Z,4.91
2023-01-03T05:01:29.495Z,4.89
2023-01-03T05:02:29.405Z,4.77
2023-01-03T05:03:29.295Z,4.79
2023-01-03T05:04:29.334Z,4.80
2023-01-03T05:05:29.244Z,4.83
2023-01-03T05:06:29.244Z,4.67
2023-01-03T05:07:29.195Z,4.70
2023-01-03T05:08:29.167Z,4.76
2023-01-03T05:09:29.148Z,4.83
2023-01-03T05:10:29.118Z,4.76
2023-01-03T05:11:29.090Z,4.79
2023-01-03T05:12:29.070Z,4.76
2023-01-03T05:13:29.044Z,4.80
2023-01-03T05:14:29.022Z,4.83
2023-01-03T05:15:28.981Z,4.84
2023-01-03T05:16:29.026Z,4.76
2023-01-03T05:17:28.932Z,4.80
2023-01-03T05:18:28.912Z,4.70
2023-01-03T05:19:28.888Z,4.69
2023-01-03T05:20:28.859Z,4.70
2023-01-03T05:21:28.831Z,4.79
2023-01-03T05:22:28.809Z,4.89
2023-01-03T05:23:28.814Z,4.76
2023-01-03T05:24:28.754Z,4.79
2023-01-03T05:25:28.763Z,4.79
2023-01-03T05:26:28.719Z,4.76
2023-01-03T05:27:28.690Z,4.67
2023-01-03T05:28:28.683Z,4.64
2023-01-03T05:29:28.641Z,4.51
2023-01-03T05:30:28.608Z,4.43
2023-01-03T05:31:28.587Z,4.40
2023-01-03T05:32:28.552Z,4.46
2023-01-03T05:33:28.524Z,4.44
2023-01-03T05:34:28.497Z,4.52
2023-01-03T05:35:28.468Z,4.46
2023-01-03T05:36:28.443Z,4.47
2023-01-03T05:37:28.437Z,4.58
2023-01-03T05:38:28.395Z,4.59
2023-01-03T05:39:28.375Z,4.47
2023-01-03T05:40:28.341Z,4.44
2023-01-03T05:41:28.309Z,4.44
2023-01-03T05:42:28.292Z,4.39
2023-01-03T05:43:28.264Z,4.33
2023-01-03T05:44:28.238Z,4.28
2023-01-03T05:45:28.206Z,4.06
2023-01-03T05:46:28.233Z,4.10
2023-01-03T05:47:28.157Z,4.16
2023-01-03T05:48:28.138Z,4.07
2023-01-03T05:49:28.120Z,3.92
2023-01-03T05:50:28.094Z,3.94
2023-01-03T05:51:28.056Z,4.07
2023-01-03T05:52:28.029Z,4.15
2023-01-03T05:53:27.999Z,4.22
2023-01-03T05:54:27.979Z,4.37
2023-01-03T05:55:27.948Z,4.33
2023-01-03T05:56:27.984Z,4.26
2023-01-03T05:57:34.972Z,4.07
2023-01-03T05:58:27.918Z,4.00
2023-01-03T05:59:27.912Z,3.96
2023-01-03T06:00:27.856Z,3.79
2023-01-03T06:01:27.829Z,3.80
2023-01-03T06:02:27.921Z,3.79
2023-01-03T06:03:27.782Z,3.97
2023-01-03T06:04:27.782Z,4.00
2023-01-03T06:05:27.978Z,4.18
2023-01-03T06:06:27.687Z,4.12
2023-01-03T06:07:27.643Z,4.12
2023-01-03T06:08:27.621Z,4.18
2023-01-03T06:09:27.596Z,4.26
2023-01-03T06:10:27.615Z,4.29
2023-01-03T06:11:27.546Z,4.26
2023-01-03T06:12:27.520Z,4.32
2023-01-03T06:13:27.483Z,4.44
2023-01-03T06:14:27.460Z,4.44
2023-01-03T06:15:27.427Z,4.50
2023-01-03T06:16:27.466Z,4.36
2023-01-03T06:17:27.470Z,4.40
2023-01-03T06:18:27.356Z,4.29
2023-01-03T06:19:27.326Z,4.24
2023-01-03T06:20:27.315Z,4.25
2023-01-03T06:21:27.276Z,4.16
2023-01-03T06:22:27.264Z,4.06
2023-01-03T06:23:27.224Z,4.14
2023-01-03T06:24:27.264Z,4.07
2023-01-03T06:25:27.200Z,4.04
2023-01-03T06:26:27.207Z,4.01
2023-01-03T06:27:27.145Z,3.89
2023-01-03T06:28:27.095Z,3.78
2023-01-03T06:29:27.068Z,3.75
2023-01-03T06:30:27.125Z,3.65
2023-01-03T06:31:27.153Z,3.53
2023-01-03T06:32:26.994Z,3.68
2023-01-03T06:33:26.959Z,3.70
2023-01-03T06:34:26.944Z,3.71
2023-01-03T06:35:26.909Z,3.78
2023-01-03T06:36:26.905Z,3.88
2023-01-03T06:37:26.929Z,3.92
2023-01-03T06:38:26.837Z,3.83
2023-01-03T06:39:26.805Z,3.82
2023-01-03T06:40:30.429Z,3.86
2023-01-03T06:41:26.759Z,3.75
2023-01-03T06:42:26.729Z,3.70
2023-01-03T06:43:26.706Z,3.68
2023-01-03T06:44:26.692Z,3.76
2023-01-03T06:45:26.660Z,3.67
2023-01-03T06:46:26.708Z,3.62
2023-01-03T06:47:26.594Z,3.54
2023-01-03T06:48:26.576Z,3.49
2023-01-03T06:49:26.565Z,3.44
2023-01-03T06:50:26.531Z,3.36
2023-01-03T06:51:26.529Z,3.24
2023-01-03T06:52:26.469Z,3.44
2023-01-03T06:53:26.439Z,3.71
2023-01-03T06:54:26.425Z,3.71
2023-01-03T06:55:26.387Z,3.61
2023-01-03T06:56:26.364Z,3.72
2023-01-03T06:57:27.440Z,3.85
2023-01-03T06:58:26.315Z,3.83
2023-01-03T06:59:26.288Z,3.85
2023-01-03T07:00:26.272Z,3.76
2023-01-03T07:01:26.371Z,3.83
2023-01-03T07:02:26.354Z,3.72
2023-01-03T07:03:26.190Z,3.61
2023-01-03T07:04:26.251Z,3.64
2023-01-03T07:05:26.136Z,3.62
2023-01-03T07:06:26.116Z,3.57
2023-01-03T07:07:26.075Z,3.61
2023-01-03T07:08:26.075Z,3.54
2023-01-03T07:09:26.041Z,3.52
2023-01-03T07:10:26.059Z,3.52
2023-01-03T07:11:25.988Z,3.65
2023-01-03T07:12:25.948Z,3.60
2023-01-03T07:13:25.925Z,3.58
2023-01-03T07:14:25.897Z,3.61
2023-01-03T07:15:25.867Z,3.57
2023-01-03T07:16:25.935Z,3.62
2023-01-03T07:17:25.837Z,3.61
2023-01-03T07:18:25.795Z,3.47
2023-01-03T07:19:25.763Z,3.57
2023-01-03T07:20:25.749Z,3.54
2023-01-03T07:21:25.741Z,3.64
2023-01-03T07:22:25.684Z,3.47
2023-01-03T07:23:25.660Z,3.46
2023-01-03T07:24:25.643Z,3.44
2023-01-03T07:25:25.601Z,3.44
2023-01-03T07:26:25.612Z,3.49
2023-01-03T07:27:25.553Z,3.44
2023-01-03T07:28:25.533Z,3.43
2023-01-03T07:29:25.498Z,3.36
2023-01-03T07:30:25.478Z,3.28
2023-01-03T07:31:25.517Z,3.31
2023-01-03T07:32:25.469Z,3.28
2023-01-03T07:33:25.479Z,3.31
2023-01-03T07:34:25.441Z,3.43
2023-01-03T07:35:25.422Z,3.31
2023-01-03T07:36:25.468Z,3.42
2023-01-03T07:37:25.297Z,3.42
2023-01-03T07:38:25.286Z,3.31
2023-01-03T07:39:25.244Z,3.53
2023-01-03T07:40:25.217Z,3.88
2023-01-03T07:41:25.239Z,3.98
2023-01-03T07:42:25.179Z,3.94
2023-01-03T07:43:25.147Z,3.94
2023-01-03T07:44:25.112Z,3.98
2023-01-03T07:45:25.084Z,4.01
2023-01-03T07:46:25.182Z,4.00
2023-01-03T07:47:25.036Z,4.14
2023-01-03T07:48:25.040Z,4.12
2023-01-03T07:49:24.987Z,4.14
2023-01-03T07:50:24.958Z,4.07
2023-01-03T07:51:24.935Z,4.03
2023-01-03T07:52:24.953Z,3.92
2023-01-03T07:53:24.882Z,3.80
2023-01-03T07:54:24.849Z,3.78
2023-01-03T07:55:24.829Z,3.60
2023-01-03T07:56:24.808Z,3.67
2023-01-03T07:57:24.783Z,3.68
2023-01-03T07:58:24.775Z,3.70
2023-01-03T07:59:24.730Z,3.67
2023-01-03T08:00:24.703Z,3.68
2023-01-03T08:01:24.865Z,3.78
2023-01-03T08:02:24.779Z,3.71
2023-01-03T08:03:24.617Z,3.72
2023-01-03T08:04:24.636Z,3.72
2023-01-03T08:05:24.556Z,3.72
2023-01-03T08:06:24.547Z,3.68
2023-01-03T08:07:24.535Z,3.75
2023-01-03T08:08:24.491Z,3.83
2023-01-03T08:09:24.463Z,3.97
2023-01-03T08:10:24.427Z,3.90
2023-01-03T08:11:24.421Z,3.86
2023-01-03T08:12:24.412Z,3.92
2023-01-03T08:13:24.351Z,3.92
2023-01-03T08:14:26.695Z,4.00
2023-01-03T08:15:24.317Z,4.00
2023-01-03T08:16:24.349Z,4.01
2023-01-03T08:17:24.258Z,3.92
2023-01-03T08:18:24.220Z,3.94
2023-01-03T08:19:24.213Z,3.92
2023-01-03T08:20:24.178Z,3.76
2023-01-03T08:21:24.152Z,3.70
2023-01-03T08:22:24.119Z,3.64
2023-01-03T08:23:24.111Z,3.70
2023-01-03T08:24:24.068Z,3.64
2023-01-03T08:25:24.044Z,3.65
2023-01-03T08:26:24.059Z,3.62
2023-01-03T08:27:23.988Z,3.54
2023-01-03T08:28:24.014Z,3.61
2023-01-03T08:29:23.952Z,3.62
2023-01-03T08:30:23.934Z,3.72
2023-01-03T08:31:23.913Z,3.75
2023-01-03T08:32:23.881Z,3.85
2023-01-03T08:33:23.843Z,3.89
2023-01-03T08:34:29.275Z,4.16
2023-01-03T08:35:23.789Z,4.50
2023-01-03T08:36:23.862Z,4.58
2023-01-03T08:37:23.741Z,4.70
2023-01-03T08:38:23.709Z,4.89
2023-01-03T08:39:23.687Z,5.01
2023-01-03T08:40:23.659Z,5.10
2023-01-03T08:41:23.641Z,5.12
2023-01-03T08:42:23.627Z,4.91
2023-01-03T08:43:23.577Z,4.69
2023-01-03T08:44:23.547Z,4.54
2023-01-03T08:45:23.523Z,4.54
2023-01-03T08:46:23.549Z,4.46
2023-01-03T08:47:23.472Z,4.33
2023-01-03T08:48:23.455Z,4.18
2023-01-03T08:49:23.419Z,4.07
2023-01-03T08:50:23.387Z,4.01
2023-01-03T08:51:23.377Z,3.82
2023-01-03T08:52:23.402Z,3.75
2023-01-03T08:53:23.331Z,3.75
2023-01-03T08:54:23.285Z,3.76
2023-01-03T08:55:23.261Z,3.89
2023-01-03T08:56:23.245Z,3.96
2023-01-03T08:57:23.209Z,4.16
2023-01-03T08:58:23.181Z,4.29
2023-01-03T08:59:23.164Z,4.46
2023-01-03T09:00:23.129Z,4.73
2023-01-03T09:01:23.240Z,5.02
2023-01-03T09:02:23.378Z,5.37
2023-01-03T09:03:23.296Z,5.63
2023-01-03T09:04:23.031Z,5.73
2023-01-03T09:05:23.031Z,5.82
2023-01-03T09:06:23.084Z,5.96
2023-01-03T09:07:23.049Z,6.09
2023-01-03T09:08:22.920Z,6.40
2023-01-03T09:09:22.908Z,6.73
2023-01-03T09:10:23.018Z,7.08
2023-01-03T09:11:22.851Z,7.32
2023-01-03T09:12:22.827Z,7.89
2023-01-03T09:13:22.800Z,8.14
2023-01-03T09:14:22.772Z,8.44
2023-01-03T09:15:22.751Z,8.11
2023-01-03T09:16:22.794Z,7.89
2023-01-03T09:17:22.700Z,7.90
2023-01-03T09:18:22.679Z,7.74
2023-01-03T09:19:22.645Z,7.58
2023-01-03T09:20:22.747Z,7.37
2023-01-03T09:21:22.594Z,7.27
2023-01-03T09:22:22.592Z,7.52
2023-01-03T09:23:22.540Z,7.63
2023-01-03T09:24:22.515Z,7.89
2023-01-03T09:25:22.491Z,7.74
2023-01-03T09:26:22.475Z,7.38
2023-01-03T09:27:22.457Z,7.08
2023-01-03T09:28:22.432Z,6.79
2023-01-03T09:29:22.411Z,6.77
2023-01-03T09:30:22.459Z,6.97
2023-01-03T09:31:22.382Z,7.07
2023-01-03T09:32:22.373Z,7.40
2023-01-03T09:33:22.286Z,7.75
2023-01-03T09:34:22.269Z,8.22
2023-01-03T09:35:22.241Z,8.60
2023-01-03T09:36:22.254Z,8.62
2023-01-03T09:37:22.187Z,8.71
2023-01-03T09:38:22.162Z,8.76
2023-01-03T09:39:22.149Z,8.60
2023-01-03T09:40:22.198Z,8.79
2023-01-03T09:41:22.103Z,8.94
2023-01-03T09:42:22.074Z,9.09
2023-01-03T09:43:25.493Z,9.43
2023-01-03T09:44:22.041Z,9.57
2023-01-03T09:45:21.988Z,9.49
2023-01-03T09:46:22.123Z,9.46
2023-01-03T09:47:22.065Z,9.46
2023-01-03T09:48:21.932Z,9.56
2023-01-03T09:49:21.922Z,9.76
2023-01-03T09:50:44.299Z,9.76
2023-01-03T09:51:29.256Z,9.83
2023-01-03T09:52:21.839Z,9.93
2023-01-03T09:53:21.790Z,10.04
2023-01-03T09:54:21.789Z,9.94
2023-01-03T09:55:21.793Z,10.04
2023-01-03T09:56:21.816Z,10.17
2023-01-03T09:57:28.122Z,10.10
2023-01-03T09:58:21.678Z,10.24
2023-01-03T09:59:21.649Z,10.34
2023-01-03T10:00:21.613Z,10.46
2023-01-03T10:01:21.774Z,10.66
2023-01-03T10:02:21.688Z,10.77
2023-01-03T10:03:21.687Z,10.71
2023-01-03T10:04:21.517Z,10.78
2023-01-03T10:05:21.501Z,10.91
2023-01-03T10:06:21.479Z,11.19
2023-01-03T10:07:21.460Z,11.47
2023-01-03T10:08:21.431Z,11.57
2023-01-03T10:09:21.410Z,11.53
2023-01-03T10:10:21.513Z,11.68
2023-01-03T10:11:21.363Z,11.89
2023-01-03T10:12:21.332Z,11.99
2023-01-03T10:13:21.321Z,11.80
2023-01-03T10:14:21.351Z,11.78
2023-01-03T10:15:21.311Z,11.90
2023-01-03T10:16:21.291Z,11.99
2023-01-03T10:17:21.218Z,11.99
2023-01-03T10:18:21.184Z,12.09
2023-01-03T10:19:21.171Z,12.27
2023-01-03T10:20:21.141Z,12.56
2023-01-03T10:21:21.132Z,12.54
2023-01-03T10:22:21.089Z,12.24
2023-01-03T10:23:21.097Z,12.30
2023-01-03T10:24:21.043Z,12.48
2023-01-03T10:25:21.028Z,12.29
2023-01-03T10:26:20.995Z,12.06
2023-01-03T10:27:20.978Z,12.26
2023-01-03T10:28:20.950Z,12.51
2023-01-03T10:29:20.931Z,12.79
2023-01-03T10:30:20.905Z,13.00
2023-01-03T10:31:20.972Z,13.04
2023-01-03T10:32:20.912Z,13.06
2023-01-03T10:33:20.837Z,13.04
2023-01-03T10:34:20.806Z,13.09
2023-01-03T10:35:20.791Z,12.75
2023-01-03T10:36:20.767Z,12.60
2023-01-03T10:37:20.748Z,12.56
2023-01-03T10:38:20.749Z,12.62
2023-01-03T10:39:20.716Z,12.57
2023-01-03T10:40:20.677Z,12.66
2023-01-03T10:41:20.657Z,12.67
2023-01-03T10:42:20.643Z,12.67
2023-01-03T10:43:20.617Z,12.57
2023-01-03T10:44:20.586Z,12.30
2023-01-03T10:45:20.567Z,12.38
2023-01-03T10:46:20.617Z,12.29
2023-01-03T10:47:20.537Z,12.31
2023-01-03T10:48:20.501Z,12.42
2023-01-03T10:49:29.330Z,12.56
2023-01-03T10:50:20.456Z,12.81
2023-01-03T10:51:20.442Z,13.12
2023-01-03T10:52:20.405Z,13.21
2023-01-03T10:53:20.387Z,13.56
2023-01-03T10:54:20.367Z,13.54
2023-01-03T10:55:20.343Z,13.65
2023-01-03T10:56:20.340Z,13.76
2023-01-03T10:57:20.306Z,13.54
2023-01-03T10:58:20.291Z,13.37
2023-01-03T10:59:20.257Z,13.27
2023-01-03T11:00:20.245Z,13.24
2023-01-03T11:01:20.267Z,13.02
2023-01-03T11:02:20.349Z,13.27
2023-01-03T11:03:20.266Z,13.65
2023-01-03T11:04:20.163Z,13.84
2023-01-03T11:05:20.125Z,14.27
2023-01-03T11:06:20.102Z,14.43
2023-01-03T11:07:20.087Z,14.64
2023-01-03T11:08:20.072Z,14.61
2023-01-03T11:09:20.042Z,14.50
2023-01-03T11:10:20.039Z,13.80
2023-01-03T11:11:19.999Z,13.69
2023-01-03T11:12:19.978Z,13.54
2023-01-03T11:13:19.961Z,13.73
2023-01-03T11:14:19.930Z,13.94
2023-01-03T11:15:19.936Z,14.21
2023-01-03T11:16:20.000Z,14.61
2023-01-03T11:17:19.871Z,14.12
2023-01-03T11:18:19.846Z,13.94
2023-01-03T11:19:19.832Z,14.09
2023-01-03T11:20:19.840Z,14.12
2023-01-03T11:21:19.819Z,14.21
2023-01-03T11:22:19.831Z,14.31
2023-01-03T11:23:19.754Z,14.20
2023-01-03T11:24:19.732Z,14.29
2023-01-03T11:25:19.729Z,14.53
2023-01-03T11:26:19.712Z,14.67
2023-01-03T11:27:19.673Z,14.67
2023-01-03T11:28:19.676Z,14.65
2023-01-03T11:29:19.632Z,14.54
2023-01-03T11:30:19.641Z,14.29
2023-01-03T11:31:19.649Z,14.46
2023-01-03T11:32:19.679Z,14.86
2023-01-03T11:33:22.748Z,14.93
2023-01-03T11:34:19.558Z,14.67
2023-01-03T11:35:24.391Z,14.31
2023-01-03T11:36:19.528Z,14.43
2023-01-03T11:37:19.477Z,14.25
2023-01-03T11:38:19.451Z,13.74
2023-01-03T11:39:26.340Z,13.54
2023-01-03T11:40:19.424Z,13.79
2023-01-03T11:41:19.395Z,13.89
2023-01-03T11:42:19.386Z,13.87
2023-01-03T11:43:19.384Z,13.76
2023-01-03T11:44:19.449Z,13.54
2023-01-03T11:45:19.328Z,13.65
2023-01-03T11:46:19.523Z,13.89
2023-01-03T11:47:19.290Z,13.54
2023-01-03T11:48:19.355Z,13.07
2023-01-03T11:49:19.258Z,12.97
2023-01-03T11:50:19.256Z,13.03
2023-01-03T11:51:19.215Z,13.06
2023-01-03T11:52:19.262Z,13.12
2023-01-03T11:53:19.199Z,13.14
2023-01-03T11:54:19.147Z,13.15
2023-01-03T11:55:19.414Z,13.30
2023-01-03T11:56:19.561Z,13.67
2023-01-03T11:57:19.216Z,13.70
2023-01-03T11:58:19.112Z,13.84
2023-01-03T11:59:19.082Z,13.74
2023-01-03T12:00:19.050Z,13.80
2023-01-03T12:01:19.097Z,14.17
2023-01-03T12:02:19.135Z,14.39
2023-01-03T12:03:19.664Z,14.04
2023-01-03T12:04:19.015Z,13.67
2023-01-03T12:05:18.963Z,13.44
2023-01-03T12:06:22.391Z,13.51
2023-01-03T12:07:46.985Z,13.54
2023-01-03T12:08:18.889Z,13.47
2023-01-03T12:09:18.876Z,13.09
2023-01-03T12:10:18.855Z,12.89
2023-01-03T12:11:18.839Z,12.51
2023-01-03T12:12:18.831Z,12.49
2023-01-03T12:13:21.523Z,12.39
2023-01-03T12:14:18.780Z,12.26
2023-01-03T12:15:18.766Z,11.99
2023-01-03T12:16:18.874Z,11.80
2023-01-03T12:17:18.753Z,11.70
2023-01-03T12:18:18.707Z,11.34
2023-01-03T12:19:18.710Z,11.32
2023-01-03T12:20:18.660Z,11.28
2023-01-03T12:21:18.660Z,11.28
2023-01-03T12:22:18.619Z,11.13
2023-01-03T12:23:18.602Z,11.20
2023-01-03T12:24:18.582Z,11.07
2023-01-03T12:25:18.569Z,11.13
2023-01-03T12:26:18.562Z,11.06
2023-01-03T12:27:18.519Z,11.10
2023-01-03T12:28:18.497Z,11.19
2023-01-03T12:29:18.491Z,11.17
2023-01-03T12:30:18.459Z,11.16
2023-01-03T12:31:18.450Z,11.19
2023-01-03T12:32:18.414Z,11.10
2023-01-03T12:33:18.397Z,11.02
2023-01-03T12:34:18.383Z,10.99
2023-01-03T12:35:18.385Z,11.02
2023-01-03T12:36:18.361Z,10.99
2023-01-03T12:37:18.310Z,11.02
2023-01-03T12:38:18.278Z,10.98
2023-01-03T12:39:18.249Z,10.96
2023-01-03T12:40:18.308Z,10.89
2023-01-03T12:41:18.203Z,10.89
2023-01-03T12:42:18.206Z,10.92
2023-01-03T12:43:18.182Z,10.84
2023-01-03T12:44:18.149Z,10.81
2023-01-03T12:45:18.119Z,10.81
2023-01-03T12:46:18.156Z,10.81
2023-01-03T12:47:18.121Z,10.77
2023-01-03T12:48:18.044Z,10.84
2023-01-03T12:49:18.029Z,10.94
2023-01-03T12:50:18.051Z,11.10
2023-01-03T12:51:17.984Z,11.06
2023-01-03T12:52:17.954Z,11.07
2023-01-03T12:53:17.936Z,11.03
2023-01-03T12:54:17.927Z,11.07
2023-01-03T12:55:17.914Z,11.03
2023-01-03T12:56:17.875Z,11.07
2023-01-03T12:57:17.836Z,11.10
2023-01-03T12:58:17.818Z,11.07
2023-01-03T12:59:17.837Z,11.07
2023-01-03T13:00:17.795Z,11.03
2023-01-03T13:01:17.967Z,10.95
2023-01-03T13:02:17.974Z,11.07
2023-01-03T13:03:17.859Z,11.06
2023-01-03T13:04:23.012Z,11.07
2023-01-03T13:05:17.664Z,11.17
2023-01-03T13:06:17.654Z,11.35
2023-01-03T13:07:17.612Z,11.53
2023-01-03T13:08:17.598Z,11.71
2023-01-03T13:09:17.582Z,11.65
2023-01-03T13:10:17.572Z,11.52
2023-01-03T13:11:17.544Z,11.41